Time;durP1;ratioP1;P1;durP2;ratioP2;P2;SDS_P1;SDS_P2;PMS_P1;PMS_P2;Temp;Humidity;BMP_temperature;BMP_pressure;BME280_temperature;BME280_humidity;BME280_pressure;Samples;Min_cycle;Max_cycle;Signal;HPM_P1;HPM_P2
2023/01/26 00:00:25;;;;;;;32.10;20.27;;;;;;;1.61;73.21;101411.22;4188878;28;20028;-67
2023/01/26 00:02:29;;;;;;;33.10;20.35;;;;;;;1.64;73.11;101407.22;4189713;28;20056;-67
2023/01/26 00:04:32;;;;;;;36.22;21.13;;;;;;;1.54;73.18;101402.28;4188923;28;20036;-68
2023/01/26 00:06:35;;;;;;;34.05;20.13;;;;;;;1.52;73.33;101404.72;4186062;28;20499;-67
2023/01/26 00:08:38;;;;;;;32.35;19.85;;;;;;;1.55;73.44;101401.50;4183368;28;20045;-67
2023/01/26 00:10:48;;;;;;;32.83;21.13;;;;;;;1.55;73.21;101406.63;4187775;28;20036;-67
2023/01/26 00:12:51;;;;;;;35.08;20.90;;;;;;;1.53;73.31;101409.06;4185655;28;20041;-67
2023/01/26 00:14:54;;;;;;;34.50;21.40;;;;;;;1.55;73.75;101401.50;4189242;28;20029;-67
2023/01/26 00:16:57;;;;;;;34.03;21.40;;;;;;;1.49;73.19;101401.97;4188320;28;20048;-67
2023/01/26 00:19:02;;;;;;;32.28;21.02;;;;;;;1.46;73.81;101398.31;4187603;28;20049;-67
2023/01/26 00:21:07;;;;;;;34.50;20.48;;;;;;;1.49;73.39;101401.97;4200978;28;20044;-67
2023/01/26 00:23:10;;;;;;;34.40;21.38;;;;;;;1.55;73.46;101398.94;4187492;28;20037;-67
2023/01/26 00:25:13;;;;;;;34.08;21.05;;;;;;;1.67;73.36;101394.59;4192188;28;20044;-67
2023/01/26 00:27:15;;;;;;;32.97;20.40;;;;;;;1.68;73.35;101387.78;4192802;28;20035;-67
2023/01/26 00:29:18;;;;;;;35.65;20.23;;;;;;;1.63;73.75;101387.47;4192355;28;20055;-67
2023/01/26 00:31:23;;;;;;;33.63;19.90;;;;;;;1.64;73.22;101378.13;4186992;28;20516;-67
2023/01/26 00:33:27;;;;;;;36.13;21.05;;;;;;;1.57;73.71;101384.53;4190977;28;20058;-67
2023/01/26 00:35:31;;;;;;;36.30;20.48;;;;;;;1.58;73.46;101386.31;4190371;28;20045;-67
2023/01/26 00:37:34;;;;;;;34.70;21.63;;;;;;;1.56;73.57;101382.75;4188528;28;20044;-68
2023/01/26 00:39:37;;;;;;;33.75;20.65;;;;;;;1.49;73.42;101376.34;4178416;28;20041;-68
2023/01/26 00:44:00;;;;;;;33.30;19.30;;;;;;;1.33;74.19;101366.75;4187873;28;20433;-68
2023/01/26 00:46:03;;;;;;;33.72;20.70;;;;;;;1.28;74.31;101370.69;4193281;28;20043;-68
2023/01/26 00:48:07;;;;;;;34.30;21.35;;;;;;;1.34;73.97;101368.53;4188072;28;20033;-68
2023/01/26 00:50:11;;;;;;;33.80;21.13;;;;;;;1.42;74.24;101373.25;4187389;28;20044;-68
2023/01/26 00:52:15;;;;;;;35.85;20.33;;;;;;;1.41;73.80;101371.50;4175060;28;21409;-67
2023/01/26 00:54:18;;;;;;;36.33;21.55;;;;;;;1.37;73.98;101365.28;4193725;28;20040;-68
2023/01/26 00:56:21;;;;;;;36.22;20.27;;;;;;;1.34;74.40;101362.50;4186824;28;20479;-68
2023/01/26 00:58:24;;;;;;;34.13;20.25;;;;;;;1.23;74.44;101364.38;4189475;28;20120;-68
2023/01/26 01:00:28;;;;;;;31.85;19.70;;;;;;;1.20;74.73;101362.50;4189782;28;20050;-68
2023/01/26 01:02:31;;;;;;;33.03;19.88;;;;;;;1.28;74.42;101364.69;4194296;28;20135;-68
2023/01/26 01:04:34;;;;;;;30.95;19.40;;;;;;;1.41;74.10;101366.38;4182633;28;20044;-68
2023/01/26 01:06:37;;;;;;;32.58;18.88;;;;;;;1.54;74.33;101368.94;4191902;28;20041;-68
2023/01/26 01:08:41;;;;;;;35.97;21.65;;;;;;;1.74;73.39;101368.56;4188779;28;20544;-68
2023/01/26 01:10:44;;;;;;;31.52;19.65;;;;;;;1.77;73.05;101366.97;4174734;28;20053;-68
2023/01/26 01:12:47;;;;;;;37.60;21.63;;;;;;;1.77;73.70;101360.19;4180337;28;20041;-68
2023/01/26 01:14:51;;;;;;;32.03;20.42;;;;;;;1.71;72.87;101362.38;4181231;28;20040;-68
2023/01/26 01:16:54;;;;;;;30.83;19.42;;;;;;;1.67;73.10;101361.28;4181425;28;20509;-68
2023/01/26 01:18:57;;;;;;;31.88;19.55;;;;;;;1.66;73.31;101359.47;4187089;28;20064;-68
2023/01/26 01:21:00;;;;;;;31.70;17.38;;;;;;;1.50;73.65;101349.03;4188994;28;20106;-68
2023/01/26 01:23:02;;;;;;;32.58;18.90;;;;;;;1.51;73.12;101345.69;4190031;28;20136;-68
2023/01/26 01:25:07;;;;;;;35.75;19.77;;;;;;;1.49;73.80;101344.69;4187440;28;20038;-68
2023/01/26 01:27:10;;;;;;;;;;;;;;;1.45;73.42;101337.63;4189033;28;20025;-68
2023/01/26 01:29:13;;;;;;;33.67;19.83;;;;;;;1.45;73.76;101353.00;4184832;28;19924;-69
2023/01/26 01:31:16;;;;;;;36.58;22.52;;;;;;;1.45;73.55;101348.75;4190353;28;20040;-68
2023/01/26 01:33:20;;;;;;;35.75;21.23;;;;;;;1.50;73.45;101351.59;4187321;28;20044;-68
2023/01/26 01:35:22;;;;;;;38.05;21.60;;;;;;;1.48;73.62;101353.19;4188678;28;20459;-68
2023/01/26 01:37:25;;;;;;;32.13;20.00;;;;;;;1.52;73.30;101356.03;4181925;28;20051;-68
2023/01/26 01:39:28;;;;;;;30.80;20.00;;;;;;;1.63;72.81;101356.72;4185033;28;20086;-66
2023/01/26 01:41:33;;;;;;;28.55;18.10;;;;;;;1.66;72.95;101353.47;4188929;28;20119;-66
2023/01/26 01:43:36;;;;;;;32.67;20.92;;;;;;;1.70;72.87;101352.91;4190396;28;20044;-66
2023/01/26 01:45:43;;;;;;;34.47;20.23;;;;;;;1.70;72.99;101353.78;4194625;28;20496;-67
2023/01/26 01:47:46;;;;;;;32.00;20.60;;;;;;;1.59;73.11;101364.13;4181507;28;20037;-66
2023/01/26 01:49:52;;;;;;;39.67;22.50;;;;;;;1.53;72.91;101357.81;4181976;28;20546;-67
2023/01/26 01:51:59;;;;;;;36.58;21.92;;;;;;;1.81;72.17;101346.78;4190878;28;20063;-66
2023/01/26 01:54:07;;;;;;;37.10;21.50;;;;;;;1.83;71.79;101347.75;4189306;28;20087;-66
2023/01/26 01:56:13;;;;;;;35.15;19.98;;;;;;;1.68;72.13;101352.81;4176470;28;20107;-66
2023/01/26 01:58:18;;;;;;;31.40;19.08;;;;;;;1.61;72.54;101352.28;4175402;28;20128;-66
2023/01/26 02:00:21;;;;;;;;;;;;;;;1.59;72.24;101352.19;4184526;28;20032;-66
2023/01/26 02:02:24;;;;;;;33.00;19.05;;;;;;;1.82;71.54;101352.78;4187328;28;20374;-67
2023/01/26 02:04:28;;;;;;;33.65;18.83;;;;;;;1.79;71.54;101350.91;4190034;28;20558;-67
2023/01/26 02:06:35;;;;;;;31.98;19.67;;;;;;;1.75;71.43;101348.94;4192426;28;20105;-67
2023/01/26 02:08:40;;;;;;;27.75;16.77;;;;;;;1.73;71.72;101346.28;4194624;28;20036;-67
2023/01/26 02:10:49;;;;;;;32.90;18.95;;;;;;;1.76;71.71;101349.84;4180540;28;20037;-67
2023/01/26 02:12:55;;;;;;;29.42;17.38;;;;;;;1.57;72.25;101344.41;4181949;28;20033;-68
2023/01/26 02:15:01;;;;;;;36.60;18.83;;;;;;;1.50;72.08;101344.78;4183752;28;20131;-67
2023/01/26 02:17:04;;;;;;;27.00;15.68;;;;;;;1.48;72.51;101348.94;4188493;28;20403;-66
2023/01/26 02:19:14;;;;;;;27.35;16.55;;;;;;;1.44;72.38;101351.22;4190199;28;20037;-66
2023/01/26 02:21:21;;;;;;;32.50;17.67;;;;;;;1.46;72.39;101344.50;4190017;28;20040;-66
2023/01/26 02:23:35;;;;;;;28.52;16.92;;;;;;;1.39;72.94;101346.66;4173717;28;20503;-66
2023/01/26 02:25:44;;;;;;;28.38;17.10;;;;;;;1.43;72.80;101339.16;4165332;28;20069;-67
2023/01/26 02:27:49;;;;;;;27.65;15.68;;;;;;;1.36;72.62;101343.91;4184308;28;20063;-67
2023/01/26 02:29:53;;;;;;;30.80;17.88;;;;;;;1.27;73.08;101333.06;4183516;28;20029;-67
2023/01/26 02:31:57;;;;;;;29.75;18.30;;;;;;;1.38;73.38;101331.19;4189884;28;20120;-66
2023/01/26 02:34:00;;;;;;;33.35;18.33;;;;;;;1.52;72.84;101332.06;4188628;28;20040;-67
2023/01/26 02:36:04;;;;;;;34.17;18.65;;;;;;;1.61;72.30;101334.34;4190637;28;20131;-66
2023/01/26 02:38:08;;;;;;;30.92;18.98;;;;;;;1.54;73.02;101333.06;4181135;28;20033;-66
2023/01/26 02:40:19;;;;;;;34.08;19.52;;;;;;;1.78;71.71;101332.88;4180312;28;20517;-66
2023/01/26 02:42:40;;;;;;;29.83;18.38;;;;;;;1.73;71.79;101336.03;4189012;28;20042;-66
2023/01/26 02:44:45;;;;;;;34.60;19.55;;;;;;;1.72;71.62;101329.16;4188323;28;20495;-66
2023/01/26 02:46:48;;;;;;;34.00;20.65;;;;;;;1.63;71.73;101332.78;4169434;28;20041;-66
2023/01/26 02:51:12;;;;;;;37.33;20.33;;;;;;;1.61;72.46;101326.66;4182583;28;20086;-66
2023/01/26 02:53:14;;;;;;;36.42;19.85;;;;;;;1.67;72.06;101327.06;4184545;28;20062;-66
2023/01/26 02:55:23;;;;;;;40.90;19.58;;;;;;;1.71;72.24;101329.94;4191008;28;20498;-66
2023/01/26 02:57:27;;;;;;;32.63;18.17;;;;;;;1.67;71.62;101320.25;4192272;28;20040;-66
2023/01/26 02:59:29;;;;;;;30.17;17.83;;;;;;;1.64;71.87;101326.88;4190967;28;20121;-67
2023/01/26 03:01:34;;;;;;;27.23;16.30;;;;;;;1.67;71.45;101327.94;4193148;28;20474;-66
2023/01/26 03:03:45;;;;;;;26.92;16.15;;;;;;;1.53;71.96;101321.03;4188550;28;20036;-66
2023/01/26 03:05:49;;;;;;;34.38;18.33;;;;;;;1.61;72.60;101325.00;4182091;28;20568;-66
2023/01/26 03:07:52;;;;;;;30.35;16.90;;;;;;;1.61;71.64;101309.63;4190231;28;20039;-66
2023/01/26 03:09:58;;;;;;;30.15;17.90;;;;;;;1.45;72.45;101317.13;4193722;28;20127;-66
2023/01/26 03:12:01;;;;;;;30.95;18.27;;;;;;;1.43;72.41;101308.44;4192917;28;20445;-66
2023/01/26 03:14:04;;;;;;;30.58;18.10;;;;;;;1.37;72.65;101309.81;4192965;28;20543;-66
2023/01/26 03:16:09;;;;;;;32.95;19.25;;;;;;;1.50;72.49;101310.59;4167960;28;20049;-66
2023/01/26 03:27:41;;;;;;;27.33;15.52;;;;;;;1.44;72.40;101289.72;4187028;28;20040;-66
2023/01/26 03:29:47;;;;;;;25.65;14.95;;;;;;;1.44;72.60;101287.16;4172384;28;20041;-66
2023/01/26 03:31:50;;;;;;;27.58;15.20;;;;;;;1.53;72.28;101287.72;4203591;28;20071;-66
2023/01/26 03:33:55;;;;;;;26.45;15.80;;;;;;;1.50;71.82;101290.09;4187580;28;20490;-67
2023/01/26 03:35:57;;;;;;;27.05;14.65;;;;;;;1.38;72.11;101291.06;4191780;28;20071;-66
2023/01/26 03:38:01;;;;;;;27.73;15.23;;;;;;;1.42;72.63;101293.84;4188845;28;20036;-66
2023/01/26 03:56:44;;;;;;;29.05;15.45;;;;;;;1.33;72.73;101277.09;4180983;28;20124;-67
2023/01/26 03:58:51;;;;;;;26.35;15.90;;;;;;;1.27;72.81;101275.81;4191017;28;20422;-67
2023/01/26 04:00:57;;;;;;;26.70;15.18;;;;;;;1.31;72.89;101278.66;4170768;28;20399;-67
2023/01/26 04:10:03;;;;;;;19.60;11.25;;;;;;;1.24;73.19;101271.38;4185936;28;20082;-67
2023/01/26 04:12:09;;;;;;;18.05;11.20;;;;;;;1.43;72.19;101272.56;4191494;28;20079;-67
2023/01/26 04:21:36;;;;;;;19.38;10.43;;;;;;;1.27;71.75;101276.72;4186110;28;20388;-67
2023/01/26 04:23:47;;;;;;;16.67;9.55;;;;;;;1.17;72.23;101264.09;4191131;28;20037;-67
2023/01/26 04:25:50;;;;;;;18.05;10.25;;;;;;;1.15;72.50;101273.34;4186789;28;20044;-67
2023/01/26 04:27:53;;;;;;;16.52;9.70;;;;;;;1.19;72.29;101267.63;4186126;28;20045;-67
2023/01/26 04:29:56;;;;;;;18.92;10.43;;;;;;;1.10;73.18;101272.16;4195521;28;20033;-67
2023/01/26 04:31:59;;;;;;;19.20;10.07;;;;;;;1.06;72.92;101265.06;4189061;28;20495;-67
2023/01/26 04:34:05;;;;;;;17.90;9.80;;;;;;;0.98;72.66;101262.88;4183228;28;20091;-67
2023/01/26 04:36:09;;;;;;;;;;;;;;;0.90;72.83;101248.69;4195511;28;20035;-67
2023/01/26 04:38:17;;;;;;;15.13;9.00;;;;;;;0.82;73.33;101258.41;4192483;28;19927;-67
2023/01/26 04:40:20;;;;;;;15.57;9.82;;;;;;;0.86;73.69;101256.94;4189132;28;20128;-67
2023/01/26 04:42:24;;;;;;;15.35;8.68;;;;;;;0.92;73.37;101252.25;4165167;28;20049;-68
2023/01/26 04:44:27;;;;;;;16.67;8.50;;;;;;;0.96;73.69;101246.50;4182175;28;20045;-68
2023/01/26 04:46:32;;;;;;;13.85;7.47;;;;;;;0.97;73.31;101244.88;4190336;28;20037;-67
2023/01/26 04:48:37;;;;;;;13.60;8.32;;;;;;;1.02;73.10;101241.81;4185621;28;20041;-67
2023/01/26 04:50:41;;;;;;;16.65;8.48;;;;;;;1.01;73.22;101242.59;4193137;28;21395;-67
2023/01/26 04:52:43;;;;;;;14.75;9.18;;;;;;;1.05;73.63;101241.09;4174375;28;20040;-68
2023/01/26 04:54:48;;;;;;;16.30;9.82;;;;;;;1.27;72.63;101234.81;4182655;28;20106;-68
2023/01/26 04:56:51;;;;;;;13.77;8.45;;;;;;;1.21;72.69;101232.75;4203810;28;20044;-68
2023/01/26 04:58:55;;;;;;;18.33;9.88;;;;;;;1.33;72.63;101230.09;4192964;28;20064;-68
2023/01/26 05:00:58;;;;;;;;;;;;;;;1.46;71.16;101227.53;4190275;28;20396;-68
2023/01/26 05:03:01;;;;;;;14.32;8.52;;;;;;;1.21;71.69;101227.63;4182816;28;19952;-67
2023/01/26 05:05:05;;;;;;;15.48;9.48;;;;;;;1.17;72.21;101228.25;4170670;28;20083;-68
2023/01/26 05:07:08;;;;;;;12.98;8.07;;;;;;;1.15;72.29;101229.81;4187567;28;20032;-68
2023/01/26 05:09:11;;;;;;;14.77;9.73;;;;;;;1.17;72.84;101228.25;4191842;28;20029;-68
2023/01/26 05:11:17;;;;;;;16.50;9.55;;;;;;;1.24;73.11;101229.50;4193174;28;20039;-68
2023/01/26 05:13:29;;;;;;;17.08;9.25;;;;;;;1.25;73.15;101226.16;4177182;28;20049;-68
2023/01/26 05:15:57;;;;;;;13.85;8.60;;;;;;;1.16;73.10;101226.47;4190579;28;20044;-67
2023/01/26 05:18:20;;;;;;;17.48;9.82;;;;;;;1.11;73.30;101227.81;4189576;28;20508;-68
2023/01/26 05:20:49;;;;;;;14.18;8.70;;;;;;;1.06;73.55;101221.53;4171565;28;20044;-67
2023/01/26 05:22:57;;;;;;;16.58;10.70;;;;;;;1.05;73.82;101215.50;4195155;28;20057;-68
2023/01/26 05:25:29;;;;;;;15.65;9.10;;;;;;;1.05;73.59;101218.06;4171436;28;20600;-68
2023/01/26 05:27:38;;;;;;;14.05;8.40;;;;;;;1.02;73.60;101216.22;4192719;28;20056;-68
2023/01/26 05:29:42;;;;;;;16.65;9.73;;;;;;;1.04;73.70;101211.19;4194933;28;20048;-67
2023/01/26 05:31:46;;;;;;;14.32;8.27;;;;;;;1.06;73.65;101219.84;4194044;28;20159;-68
2023/01/26 05:33:49;;;;;;;15.63;8.73;;;;;;;1.11;73.95;101221.06;4188499;28;20098;-68
2023/01/26 05:35:57;;;;;;;17.20;9.63;;;;;;;1.03;74.14;101215.41;4190590;28;20040;-68
2023/01/26 05:38:00;;;;;;;13.18;8.85;;;;;;;1.06;73.95;101218.97;4172393;28;20136;-68
2023/01/26 05:40:07;;;;;;;14.10;8.10;;;;;;;1.11;74.38;101217.56;4177713;28;20502;-68
2023/01/26 05:42:11;;;;;;;15.80;9.17;;;;;;;1.11;73.97;101226.16;4195446;28;20036;-67
2023/01/26 05:44:35;;;;;;;17.60;8.98;;;;;;;1.13;74.03;101226.25;4186968;28;20091;-68
2023/01/26 05:46:46;;;;;;;14.32;8.38;;;;;;;1.10;74.26;101226.94;4178706;28;20052;-68
2023/01/26 05:48:50;;;;;;;12.65;7.95;;;;;;;0.98;74.06;101227.03;4195329;28;20541;-68
2023/01/26 05:50:56;;;;;;;14.07;8.27;;;;;;;0.94;74.30;101235.31;4194937;28;20094;-68
2023/01/26 05:53:01;;;;;;;13.20;9.40;;;;;;;1.01;74.51;101232.34;4194311;28;20029;-67
2023/01/26 05:55:06;;;;;;;16.08;9.30;;;;;;;1.08;74.36;101237.88;4194180;28;20032;-67
2023/01/26 05:57:10;;;;;;;13.93;8.10;;;;;;;1.09;73.96;101235.41;4194989;28;20460;-68
2023/01/26 05:59:18;;;;;;;14.90;8.43;;;;;;;1.14;74.51;101235.69;4191784;28;21203;-68
2023/01/26 06:01:22;;;;;;;14.07;8.20;;;;;;;1.20;74.14;101228.44;4190437;28;20082;-68
2023/01/26 06:03:32;;;;;;;15.00;9.32;;;;;;;1.20;74.23;101233.56;4193122;28;20521;-68
2023/01/26 06:05:35;;;;;;;20.10;10.90;;;;;;;1.24;73.73;101234.63;4189708;28;20044;-68
2023/01/26 06:07:44;;;;;;;14.88;8.52;;;;;;;1.25;73.88;101236.41;4194089;28;20048;-68
2023/01/26 06:09:52;;;;;;;15.80;8.35;;;;;;;1.22;74.07;101231.97;4180583;28;20047;-68
2023/01/26 06:12:18;;;;;;;14.03;8.60;;;;;;;1.15;73.97;101234.91;4173693;28;20522;-68
2023/01/26 06:14:42;;;;;;;15.38;9.05;;;;;;;1.16;74.08;101236.69;4193517;28;20418;-68
2023/01/26 06:16:49;;;;;;;17.27;9.93;;;;;;;1.44;72.45;101241.03;4193931;28;20091;-68
2023/01/26 06:18:52;;;;;;;15.68;9.10;;;;;;;1.35;72.73;101244.78;4193334;28;20044;-68
2023/01/26 06:20:59;;;;;;;14.52;8.32;;;;;;;1.23;73.06;101244.00;4187414;28;20048;-68
2023/01/26 06:23:02;;;;;;;14.15;8.60;;;;;;;1.29;73.11;101249.50;4189441;28;20226;-68
2023/01/26 06:25:09;;;;;;;15.02;8.32;;;;;;;1.30;73.27;101246.16;4194982;28;20040;-68
2023/01/26 06:27:13;;;;;;;15.20;8.23;;;;;;;1.34;73.02;101253.28;4194202;28;20033;-68
2023/01/26 06:29:17;;;;;;;17.35;10.05;;;;;;;1.53;72.70;101259.53;4177384;28;20052;-67
2023/01/26 06:31:22;;;;;;;13.35;8.98;;;;;;;1.42;72.98;101260.53;4194827;28;20038;-67
2023/01/26 06:33:28;;;;;;;16.90;10.32;;;;;;;1.54;72.70;101263.88;4177746;28;20048;-68
2023/01/26 06:35:31;;;;;;;16.75;9.75;;;;;;;1.47;72.87;101259.16;4186046;28;20060;-68
2023/01/26 06:37:36;;;;;;;16.83;10.65;;;;;;;1.53;72.52;101259.53;4193969;28;20041;-68
2023/01/26 06:39:40;;;;;;;22.55;12.75;;;;;;;1.73;72.47;101265.94;4193877;28;20452;-68
2023/01/26 06:41:44;;;;;;;23.08;14.52;;;;;;;1.70;72.44;101264.06;4193065;28;20099;-68
2023/01/26 06:43:48;;;;;;;21.17;12.27;;;;;;;1.62;72.15;101260.16;4194439;28;20036;-68
2023/01/26 06:45:51;;;;;;;27.25;14.85;;;;;;;1.71;72.34;101260.72;4193205;28;20591;-68
2023/01/26 06:47:55;;;;;;;18.48;12.23;;;;;;;1.70;72.44;101261.50;4189067;28;20028;-68
2023/01/26 06:50:00;;;;;;;16.88;10.70;;;;;;;1.63;73.04;101258.47;4194069;28;20090;-68
2023/01/26 06:52:21;;;;;;;18.35;11.68;;;;;;;1.68;73.02;101257.06;4191459;28;20555;-68
2023/01/26 06:54:27;;;;;;;15.30;10.00;;;;;;;1.71;72.47;101264.97;4194023;28;20047;-68
2023/01/26 06:56:59;;;;;;;19.02;10.98;;;;;;;1.83;71.70;101263.16;4183721;28;20139;-68
2023/01/26 06:59:23;;;;;;;18.90;11.27;;;;;;;1.72;71.69;101266.72;4172733;28;20040;-68
2023/01/26 07:01:47;;;;;;;18.83;10.95;;;;;;;1.59;72.04;101270.19;4194518;28;20069;-69
2023/01/26 07:03:51;;;;;;;19.05;10.98;;;;;;;1.57;72.00;101256.41;4189679;28;20167;-67
2023/01/26 07:05:55;;;;;;;18.13;10.07;;;;;;;1.61;72.14;101263.50;4193454;28;20072;-68
2023/01/26 07:08:01;;;;;;;15.63;9.68;;;;;;;1.54;72.18;101261.31;4194846;28;20331;-68
2023/01/26 07:10:05;;;;;;;17.10;9.98;;;;;;;1.56;72.57;101262.28;4194493;28;20076;-67
2023/01/26 07:12:08;;;;;;;16.00;9.95;;;;;;;1.57;72.48;101261.53;4191456;28;20064;-67
2023/01/26 07:14:11;;;;;;;15.88;9.82;;;;;;;1.59;72.44;101265.06;4194948;28;20094;-68
2023/01/26 07:16:16;;;;;;;13.73;9.05;;;;;;;1.46;72.54;101263.41;4194443;28;20033;-68
2023/01/26 07:18:19;;;;;;;14.88;8.20;;;;;;;1.29;73.04;101262.31;4193203;28;20067;-68
2023/01/26 07:20:21;;;;;;;17.48;10.07;;;;;;;1.42;73.30;101263.09;4187042;28;20059;-68
2023/01/26 07:22:26;;;;;;;13.55;8.63;;;;;;;1.43;73.09;101260.66;4194403;28;20085;-68
2023/01/26 07:24:29;;;;;;;14.95;9.48;;;;;;;1.46;72.94;101263.41;4191238;28;20065;-68
2023/01/26 07:26:32;;;;;;;13.55;9.00;;;;;;;1.48;72.18;101264.38;4193152;28;20037;-67
2023/01/26 07:28:34;;;;;;;14.75;8.43;;;;;;;1.49;72.30;101262.69;4190414;28;20044;-68
2023/01/26 07:30:37;;;;;;;15.85;8.65;;;;;;;1.55;72.29;101269.09;4192941;28;20449;-67
2023/01/26 07:32:40;;;;;;;13.40;8.82;;;;;;;1.50;72.47;101269.59;4190521;28;20103;-68
2023/01/26 07:34:43;;;;;;;12.82;7.97;;;;;;;1.54;71.83;101271.56;4191926;28;20487;-67
2023/01/26 07:36:46;;;;;;;16.63;8.50;;;;;;;1.50;71.71;101270.47;4193233;28;20045;-67
2023/01/26 07:38:50;;;;;;;17.98;8.65;;;;;;;1.51;72.37;101272.25;4191299;28;20041;-67
2023/01/26 07:40:53;;;;;;;13.98;9.02;;;;;;;1.55;72.24;101268.22;4194146;28;20028;-68
2023/01/26 07:42:57;;;;;;;14.10;8.43;;;;;;;1.42;72.34;101270.78;4194152;28;20082;-68
2023/01/26 07:45:22;;;;;;;11.77;7.63;;;;;;;1.43;71.88;101282.81;4176010;28;20075;-68
2023/01/26 07:47:25;;;;;;;10.48;7.20;;;;;;;1.45;71.44;101271.88;4194124;28;20555;-68
2023/01/26 07:49:28;;;;;;;9.30;6.30;;;;;;;1.34;71.57;101268.63;4189587;28;20048;-68
2023/01/26 07:51:31;;;;;;;13.52;7.65;;;;;;;1.26;71.96;101271.50;4187146;28;20040;-68
2023/01/26 07:53:38;;;;;;;10.63;7.53;;;;;;;1.32;72.17;101275.31;4193904;28;20045;-68
2023/01/26 07:55:43;;;;;;;11.27;7.10;;;;;;;1.30;72.12;101273.44;4194249;28;20041;-68
2023/01/26 07:57:47;;;;;;;;;;;;;;;1.17;72.71;101280.34;4198050;28;20435;-68
2023/01/26 07:59:52;;;;;;;14.07;7.57;;;;;;;1.18;72.02;101281.22;4190252;28;20376;-67
2023/01/26 08:01:54;;;;;;;14.25;9.13;;;;;;;1.16;73.04;101283.69;4198170;28;20041;-68
2023/01/26 08:03:57;;;;;;;16.00;7.93;;;;;;;1.19;72.27;101278.75;4188565;28;20058;-68
2023/01/26 08:06:00;;;;;;;13.23;7.22;;;;;;;1.48;71.32;101282.31;4192750;28;20514;-68
2023/01/26 08:08:04;;;;;;;9.85;6.47;;;;;;;1.43;71.20;101290.50;4197146;28;20036;-68
2023/01/26 08:10:11;;;;;;;11.85;6.82;;;;;;;1.32;71.20;101289.81;4195755;28;20040;-68
2023/01/26 08:12:15;;;;;;;12.20;6.90;;;;;;;1.30;71.58;101288.81;4174848;28;20068;-67
2023/01/26 08:14:18;;;;;;;9.60;5.65;;;;;;;1.37;70.90;101284.19;4193328;28;20494;-68
2023/01/26 08:16:21;;;;;;;11.77;6.75;;;;;;;1.15;71.47;101281.03;4195608;28;20049;-67
2023/01/26 08:18:24;;;;;;;11.23;6.95;;;;;;;1.26;71.87;101279.19;4195891;28;20418;-68
2023/01/26 08:20:27;;;;;;;12.07;7.93;;;;;;;1.27;71.55;101281.84;4194833;28;20044;-67
2023/01/26 08:22:30;;;;;;;8.45;6.07;;;;;;;1.17;71.75;101287.16;4197602;28;20047;-67
2023/01/26 08:24:32;;;;;;;12.68;7.90;;;;;;;1.18;72.09;101281.22;4177108;28;20055;-68
2023/01/26 08:26:35;;;;;;;10.55;6.50;;;;;;;1.17;72.18;101284.59;4195837;28;20033;-67
2023/01/26 08:28:41;;;;;;;10.10;6.82;;;;;;;1.27;72.43;101294.63;4196731;28;20399;-68
2023/01/26 08:30:44;;;;;;;10.27;6.57;;;;;;;1.26;72.13;101289.41;4195462;28;20029;-68
2023/01/26 08:32:47;;;;;;;9.73;6.78;;;;;;;1.29;71.73;101293.06;4193267;28;20099;-68
2023/01/26 08:34:50;;;;;;;13.60;6.40;;;;;;;1.31;71.78;101294.03;4191749;28;20047;-67
2023/01/26 08:36:53;;;;;;;9.30;6.03;;;;;;;1.34;71.47;101294.25;4195685;28;20036;-68
2023/01/26 08:38:56;;;;;;;9.57;7.05;;;;;;;1.39;70.98;101292.88;4196359;28;20036;-68
2023/01/26 08:40:59;;;;;;;9.15;6.50;;;;;;;1.42;70.85;101297.31;4196799;28;20040;-68
2023/01/26 08:43:02;;;;;;;8.40;5.60;;;;;;;1.39;70.38;101302.22;4196571;28;20090;-68
2023/01/26 08:45:08;;;;;;;9.38;6.10;;;;;;;1.35;69.72;101298.56;4195053;28;20060;-68
2023/01/26 08:47:11;;;;;;;8.98;5.88;;;;;;;1.30;69.90;101306.72;4194949;28;20071;-68
2023/01/26 08:49:14;;;;;;;9.15;6.05;;;;;;;1.29;70.34;101308.44;4196513;28;20041;-68
2023/01/26 08:51:17;;;;;;;8.63;5.43;;;;;;;1.36;69.92;101308.03;4196503;28;20036;-68
2023/01/26 08:53:20;;;;;;;11.43;6.45;;;;;;;1.33;70.11;101305.28;4190899;28;20032;-67
2023/01/26 08:55:23;;;;;;;9.07;5.43;;;;;;;1.27;70.53;101304.88;4197509;28;20402;-68
2023/01/26 08:57:25;;;;;;;9.40;6.55;;;;;;;1.19;70.75;101299.25;4196917;28;20040;-69
2023/01/26 08:59:28;;;;;;;11.30;6.65;;;;;;;1.30;71.20;101299.97;4196118;28;20040;-69
2023/01/26 09:01:32;;;;;;;10.05;5.97;;;;;;;1.44;69.49;101299.97;4195136;28;20036;-69
2023/01/26 09:03:35;;;;;;;8.77;5.55;;;;;;;1.48;69.71;101304.50;4196017;28;20487;-68
2023/01/26 09:05:40;;;;;;;8.88;6.20;;;;;;;1.40;69.91;101303.97;4193790;28;20102;-69
2023/01/26 09:07:43;;;;;;;9.82;6.65;;;;;;;1.24;70.14;101307.22;4187145;28;20037;-68
2023/01/26 09:09:46;;;;;;;8.43;5.20;;;;;;;1.35;69.74;101301.13;4192959;28;20509;-69
2023/01/26 09:11:51;;;;;;;8.90;5.60;;;;;;;1.27;70.25;101311.66;4196651;28;20544;-69
2023/01/26 09:13:55;;;;;;;9.00;5.93;;;;;;;1.29;69.86;101305.84;4189327;28;20043;-69
2023/01/26 09:15:59;;;;;;;8.40;5.00;;;;;;;1.35;68.69;101308.81;4196104;28;20525;-68
2023/01/26 09:18:03;;;;;;;7.65;5.32;;;;;;;1.20;69.35;101312.97;4190661;28;20086;-69
2023/01/26 09:20:08;;;;;;;8.63;5.80;;;;;;;1.19;69.67;101313.72;4196086;28;20040;-68
2023/01/26 09:22:11;;;;;;;8.90;5.82;;;;;;;1.25;69.62;101319.25;4191849;28;20048;-69
2023/01/26 09:24:14;;;;;;;8.15;5.03;;;;;;;1.35;68.58;101310.50;4190407;28;20036;-68
2023/01/26 09:26:17;;;;;;;8.50;6.03;;;;;;;1.25;69.00;101313.25;4195790;28;20036;-68
2023/01/26 09:28:20;;;;;;;10.60;5.40;;;;;;;1.32;68.80;101305.19;4195681;28;20603;-69
2023/01/26 09:30:23;;;;;;;8.70;5.18;;;;;;;1.43;68.16;101303.31;4195821;28;20036;-68
2023/01/26 09:32:26;;;;;;;6.53;4.72;;;;;;;1.36;68.81;101302.03;4195820;28;20037;-68
2023/01/26 09:34:31;;;;;;;8.20;5.25;;;;;;;1.31;68.72;101314.53;4195622;28;20033;-68
2023/01/26 09:36:34;;;;;;;8.07;5.35;;;;;;;1.56;67.28;101322.16;4191730;28;20485;-68
2023/01/26 09:38:37;;;;;;;14.23;8.27;;;;;;;1.43;66.63;101313.56;4194074;28;20041;-68
2023/01/26 09:40:49;;;;;;;7.65;5.53;;;;;;;1.28;67.66;101321.13;4196008;28;20032;-68
2023/01/26 09:43:11;;;;;;;8.45;5.53;;;;;;;1.24;67.74;101324.28;4189701;28;20033;-69
2023/01/26 09:45:24;;;;;;;8.43;5.55;;;;;;;1.29;67.14;101313.53;4190838;28;20048;-69
2023/01/26 09:47:34;;;;;;;9.88;5.82;;;;;;;1.18;66.99;101311.94;4187104;28;20060;-69
2023/01/26 09:49:47;;;;;;;9.25;5.85;;;;;;;1.31;67.42;101311.09;4180361;28;20053;-69
2023/01/26 09:51:58;;;;;;;8.27;4.90;;;;;;;1.33;66.75;101307.84;4173086;28;20130;-68
2023/01/26 09:54:14;;;;;;;6.70;4.22;;;;;;;1.32;66.33;101305.19;4193839;28;20098;-69
2023/01/26 09:56:19;;;;;;;9.82;5.30;;;;;;;1.39;66.08;101307.34;4185394;28;20041;-69
2023/01/26 09:58:30;;;;;;;6.97;4.38;;;;;;;1.40;66.13;101309.09;4192937;28;20101;-69
2023/01/26 10:00:39;;;;;;;8.02;5.07;;;;;;;1.57;65.47;101303.41;4194076;28;20502;-68
2023/01/26 10:02:55;;;;;;;8.60;4.95;;;;;;;1.53;65.25;101305.66;4194097;28;20041;-69
2023/01/26 10:05:04;;;;;;;8.82;5.13;;;;;;;1.48;65.89;101296.81;4190350;28;20695;-69
2023/01/26 10:07:11;;;;;;;9.75;5.43;;;;;;;1.50;65.92;101296.09;4192430;28;20537;-69
2023/01/26 10:09:24;;;;;;;10.25;4.72;;;;;;;1.56;65.82;101291.41;4184565;28;20036;-69
2023/01/26 10:11:32;;;;;;;8.48;4.60;;;;;;;1.66;65.00;101297.97;4187954;28;20131;-68
2023/01/26 10:13:35;;;;;;;7.72;4.75;;;;;;;1.57;65.62;101297.41;4174494;28;20076;-69
2023/01/26 10:15:42;;;;;;;8.68;4.70;;;;;;;1.59;65.40;101293.25;4193775;28;20480;-68
2023/01/26 10:17:47;;;;;;;6.35;3.97;;;;;;;1.55;64.73;101291.31;4194723;28;20625;-69
2023/01/26 10:19:50;;;;;;;;;;;;;;;1.47;65.61;101288.22;4195818;28;20036;-69
2023/01/26 10:21:57;;;;;;;7.28;3.55;;;;;;;1.57;64.98;101282.03;4193591;28;19920;-69
2023/01/26 10:24:01;;;;;;;6.05;3.50;;;;;;;1.62;64.16;101288.34;4194055;28;20059;-68
2023/01/26 10:26:13;;;;;;;7.20;3.55;;;;;;;1.53;64.72;101290.28;4193804;28;20051;-69
2023/01/26 10:28:19;;;;;;;6.03;3.50;;;;;;;1.57;64.75;101292.28;4191634;28;20041;-70